createdAt,value
2023-03-20T00:02:05.921Z,-1.90
2023-03-20T00:04:32.983Z,-1.76
2023-03-20T00:07:00.029Z,-1.64
2023-03-20T00:09:27.276Z,-1.78
2023-03-20T00:11:55.501Z,-1.87
2023-03-20T00:14:24.480Z,-2.00
2023-03-20T00:16:51.703Z,-2.00
2023-03-20T00:19:23.410Z,-1.99
2023-03-20T00:21:51.115Z,-2.08
2023-03-20T00:24:18.192Z,-2.11
2023-03-20T00:26:45.882Z,-2.00
2023-03-20T00:29:26.859Z,-1.74
2023-03-20T00:31:54.387Z,-1.50
2023-03-20T00:34:23.733Z,-1.30
2023-03-20T00:36:51.805Z,-1.14
2023-03-20T00:39:18.970Z,-0.99
2023-03-20T00:41:58.627Z,-0.87
2023-03-20T00:44:39.007Z,-0.82
2023-03-20T00:47:18.599Z,-0.80
2023-03-20T00:49:46.134Z,-0.84
2023-03-20T00:52:19.417Z,-0.88
2023-03-20T00:54:46.732Z,-1.03
2023-03-20T00:57:18.238Z,-1.31
2023-03-20T01:00:21.424Z,-1.36
2023-03-20T01:02:48.406Z,-1.24
2023-03-20T01:05:15.364Z,-1.17
2023-03-20T01:07:42.500Z,-1.14
2023-03-20T01:10:11.574Z,-1.08
2023-03-20T01:12:40.869Z,-1.13
2023-03-20T01:15:22.282Z,-1.18
2023-03-20T01:17:49.650Z,-1.01
2023-03-20T01:20:19.352Z,-0.87
2023-03-20T01:22:46.583Z,-0.97
2023-03-20T01:25:13.780Z,-1.05
2023-03-20T01:27:40.809Z,-1.11
2023-03-20T01:30:30.088Z,-1.31
2023-03-20T01:32:58.960Z,-1.32
2023-03-20T01:35:27.554Z,-1.31
2023-03-20T01:37:56.364Z,-1.33
2023-03-20T01:40:54.243Z,-1.38
2023-03-20T01:43:22.371Z,-1.36
2023-03-20T01:46:17.893Z,-1.38
2023-03-20T01:48:51.180Z,-1.44
2023-03-20T01:51:23.324Z,-1.51
2023-03-20T01:53:58.446Z,-1.53
2023-03-20T01:56:25.739Z,-1.39
2023-03-20T01:59:33.172Z,-1.15
2023-03-20T02:02:00.434Z,-1.02
2023-03-20T02:04:34.413Z,-0.99
2023-03-20T02:07:07.428Z,-0.97
2023-03-20T02:09:41.223Z,-0.89
2023-03-20T02:12:13.326Z,-0.86
2023-03-20T02:14:40.725Z,-1.00
2023-03-20T02:17:42.268Z,-1.22
2023-03-20T02:20:12.749Z,-1.28
2023-03-20T02:23:14.450Z,-1.20
2023-03-20T02:26:05.142Z,-1.10
2023-03-20T02:28:54.134Z,-1.13
2023-03-20T02:31:54.459Z,-1.23
2023-03-20T02:34:50.835Z,-1.38
2023-03-20T02:37:36.648Z,-1.45
2023-03-20T02:40:12.604Z,-1.48
2023-03-20T02:42:44.852Z,-1.52
2023-03-20T02:45:19.928Z,-1.54
2023-03-20T02:47:54.804Z,-1.55
2023-03-20T02:51:10.040Z,-1.43
2023-03-20T02:53:53.163Z,-1.24
2023-03-20T02:56:48.361Z,-1.10
2023-03-20T02:59:34.698Z,-0.92
2023-03-20T03:02:06.027Z,-0.71
2023-03-20T03:04:36.328Z,-0.60
2023-03-20T03:07:03.913Z,-0.60
2023-03-20T03:09:33.621Z,-0.60
2023-03-20T03:12:07.753Z,-0.49
2023-03-20T03:14:54.289Z,-0.35
2023-03-20T03:17:22.331Z,-0.34
2023-03-20T03:19:55.971Z,-0.35
2023-03-20T03:22:24.391Z,-0.35
2023-03-20T03:24:52.670Z,-0.29
2023-03-20T03:27:29.169Z,-0.22
2023-03-20T03:30:02.128Z,-0.21
2023-03-20T03:32:33.766Z,-0.21
2023-03-20T03:35:01.330Z,-0.19
2023-03-20T03:37:34.375Z,-0.10
2023-03-20T03:40:35.519Z,-0.08
2023-03-20T03:43:07.332Z,-0.07
2023-03-20T03:45:38.524Z,-0.02
2023-03-20T03:48:17.248Z,0.03
2023-03-20T03:50:49.324Z,0.03
2023-03-20T03:53:22.873Z,0.04
2023-03-20T03:55:55.015Z,0.03
2023-03-20T03:58:30.508Z,0.06
2023-03-20T04:00:58.772Z,-0.03
2023-03-20T04:03:29.325Z,-0.18
2023-03-20T04:05:56.359Z,-0.33
2023-03-20T04:08:23.320Z,-0.28
2023-03-20T04:10:50.361Z,-0.22
2023-03-20T04:13:17.387Z,-0.17
2023-03-20T04:15:44.552Z,-0.24
2023-03-20T04:18:16.697Z,-0.38
2023-03-20T04:20:47.988Z,-0.43
2023-03-20T04:23:16.768Z,-0.40
2023-03-20T04:25:43.759Z,-0.35
2023-03-20T04:28:11.987Z,-0.35
2023-03-20T04:31:02.422Z,-0.36
2023-03-20T04:33:48.077Z,-0.43
2023-03-20T04:36:42.398Z,-0.38
2023-03-20T04:39:11.956Z,-0.42
2023-03-20T04:41:39.805Z,-0.44
2023-03-20T04:44:07.288Z,-0.46
2023-03-20T04:46:35.427Z,-0.45
2023-03-20T04:49:06.450Z,-0.47
2023-03-20T04:51:33.408Z,-0.47
2023-03-20T04:54:00.468Z,-0.51
2023-03-20T04:56:27.613Z,-0.58
2023-03-20T04:59:07.138Z,-0.58
2023-03-20T05:01:34.112Z,-0.57
2023-03-20T05:04:01.664Z,-0.58
2023-03-20T05:06:32.413Z,-0.62
2023-03-20T05:09:00.893Z,-0.57
2023-03-20T05:11:30.184Z,-0.52
2023-03-20T05:14:06.836Z,-0.53
2023-03-20T05:17:12.316Z,-0.55
2023-03-20T05:20:00.130Z,-0.61
2023-03-20T05:22:38.798Z,-0.65
2023-03-20T05:25:11.534Z,-0.59
2023-03-20T05:28:03.425Z,-0.52
2023-03-20T05:30:48.087Z,-0.47
2023-03-20T05:33:41.545Z,-0.48
2023-03-20T05:36:27.584Z,-0.55
2023-03-20T05:39:04.080Z,-0.55
2023-03-20T05:41:51.867Z,-0.46
2023-03-20T05:44:37.547Z,-0.37
2023-03-20T05:47:26.038Z,-0.33
2023-03-20T05:50:04.434Z,-0.27
2023-03-20T05:53:01.067Z,-0.35
2023-03-20T05:55:39.137Z,-0.40
2023-03-20T05:58:24.543Z,-0.41
2023-03-20T06:01:10.149Z,-0.40
2023-03-20T06:03:57.361Z,-0.39
2023-03-20T06:06:44.437Z,-0.12
2023-03-20T06:09:11.883Z,0.02
2023-03-20T06:11:39.123Z,0.03
2023-03-20T06:14:07.218Z,-0.02
2023-03-20T06:16:38.676Z,-0.05
2023-03-20T06:19:05.692Z,-0.02
2023-03-20T06:21:33.066Z,-0.05
2023-03-20T06:24:00.698Z,-0.04
2023-03-20T06:26:28.724Z,-0.03
2023-03-20T06:29:03.507Z,-0.07
2023-03-20T06:31:31.959Z,-0.08
2023-03-20T06:34:00.896Z,-0.15
2023-03-20T06:36:28.122Z,-0.20
2023-03-20T06:39:01.697Z,-0.14
2023-03-20T06:41:34.715Z,-0.11
2023-03-20T06:44:06.688Z,-0.10
2023-03-20T06:46:54.094Z,-0.11
2023-03-20T06:49:21.527Z,-0.07
2023-03-20T06:51:48.778Z,-0.08
2023-03-20T06:54:23.185Z,-0.06
2023-03-20T06:56:51.497Z,-0.06
2023-03-20T06:59:18.476Z,-0.03
2023-03-20T07:01:45.656Z,0.02
2023-03-20T07:04:14.725Z,0.03
2023-03-20T07:06:48.633Z,0.17
2023-03-20T07:09:17.610Z,0.23
2023-03-20T07:11:45.184Z,0.31
2023-03-20T07:14:15.440Z,0.53
2023-03-20T07:16:56.490Z,0.63
2023-03-20T07:19:23.549Z,0.70
2023-03-20T07:21:57.596Z,0.81
2023-03-20T07:24:24.890Z,0.83
2023-03-20T07:26:51.879Z,0.78
2023-03-20T07:29:19.936Z,0.72
2023-03-20T07:31:47.190Z,0.71
2023-03-20T07:34:22.600Z,0.77
2023-03-20T07:36:50.360Z,0.78
2023-03-20T07:39:20.186Z,0.78
2023-03-20T07:41:57.343Z,0.87
2023-03-20T07:44:43.425Z,0.99
2023-03-20T07:47:11.824Z,1.02
2023-03-20T07:49:38.906Z,0.95
2023-03-20T07:52:07.972Z,0.96
2023-03-20T07:54:38.086Z,0.88
2023-03-20T07:57:05.545Z,0.83
2023-03-20T07:59:32.808Z,0.87
2023-03-20T08:01:59.850Z,0.94
2023-03-20T08:04:26.848Z,0.96
2023-03-20T08:06:54.034Z,1.00
2023-03-20T08:09:21.134Z,1.00
2023-03-20T08:11:48.154Z,0.93
2023-03-20T08:14:15.427Z,0.96
2023-03-20T08:16:42.577Z,0.95
2023-03-20T08:19:12.592Z,1.01
2023-03-20T08:21:40.425Z,1.04
2023-03-20T08:24:08.720Z,1.08
2023-03-20T08:26:36.394Z,1.07
2023-03-20T08:29:03.369Z,1.08
2023-03-20T08:31:31.677Z,1.11
2023-03-20T08:33:58.809Z,1.17
2023-03-20T08:36:25.892Z,1.24
2023-03-20T08:38:52.937Z,1.29
2023-03-20T08:41:20.417Z,1.32
2023-03-20T08:43:48.079Z,1.35
2023-03-20T08:46:15.378Z,1.42
2023-03-20T08:48:42.521Z,1.52
2023-03-20T08:51:10.082Z,1.54
2023-03-20T08:53:37.108Z,1.55
2023-03-20T08:56:04.291Z,1.65
2023-03-20T08:58:31.286Z,1.75
2023-03-20T09:01:03.044Z,1.75
2023-03-20T09:03:30.271Z,1.82
2023-03-20T09:05:57.405Z,1.95
2023-03-20T09:08:24.925Z,2.03
2023-03-20T09:10:53.405Z,2.07
2023-03-20T09:13:27.819Z,2.09
2023-03-20T09:15:55.668Z,2.14
2023-03-20T09:18:22.750Z,2.25
2023-03-20T09:20:49.842Z,2.35
2023-03-20T09:23:16.998Z,2.35
2023-03-20T09:25:44.077Z,2.36
2023-03-20T09:28:11.317Z,2.47
2023-03-20T09:30:39.569Z,2.55
2023-03-20T09:33:06.655Z,2.65
2023-03-20T09:35:33.831Z,2.70
2023-03-20T09:38:01.080Z,2.72
2023-03-20T09:40:31.246Z,2.77
2023-03-20T09:43:36.760Z,2.84
2023-03-20T09:46:31.371Z,2.83
2023-03-20T09:49:13.168Z,2.94
2023-03-20T09:52:00.680Z,2.99
2023-03-20T09:54:28.505Z,3.03
2023-03-20T09:56:56.860Z,3.08
2023-03-20T09:59:25.251Z,3.15
2023-03-20T10:01:54.318Z,3.11
2023-03-20T10:04:21.594Z,3.06
2023-03-20T10:06:48.599Z,3.15
2023-03-20T10:09:23.915Z,3.26
2023-03-20T10:12:14.684Z,3.28
2023-03-20T10:15:29.244Z,3.35
2023-03-20T10:18:25.644Z,3.41
2023-03-20T10:21:05.151Z,3.43
2023-03-20T10:23:36.118Z,3.42
2023-03-20T10:26:13.549Z,3.42
2023-03-20T10:28:50.929Z,3.43
2023-03-20T10:31:45.797Z,3.47
2023-03-20T10:34:45.069Z,3.57
2023-03-20T10:37:39.947Z,3.57
2023-03-20T10:40:27.561Z,3.54
2023-03-20T10:42:57.248Z,3.54
2023-03-20T10:45:44.677Z,3.51
2023-03-20T10:48:21.153Z,3.52
2023-03-20T10:50:59.814Z,3.44
2023-03-20T10:53:41.629Z,3.41
2023-03-20T10:56:16.802Z,3.42
2023-03-20T10:58:45.433Z,3.38
2023-03-20T11:01:12.468Z,3.39
2023-03-20T11:03:41.428Z,3.38
2023-03-20T11:06:27.893Z,3.39
2023-03-20T11:08:55.088Z,3.34
2023-03-20T11:11:26.572Z,3.29
2023-03-20T11:13:54.038Z,3.27
2023-03-20T11:16:33.094Z,3.23
2023-03-20T11:19:08.571Z,3.22
2023-03-20T11:21:39.118Z,3.21
2023-03-20T11:24:06.756Z,3.18
2023-03-20T11:26:35.889Z,3.16
2023-03-20T11:29:02.920Z,3.10
2023-03-20T11:31:34.614Z,3.09
2023-03-20T11:34:04.591Z,3.05
2023-03-20T11:36:33.304Z,3.03
2023-03-20T11:39:06.429Z,3.04
2023-03-20T11:41:33.543Z,3.02
2023-03-20T11:44:00.628Z,3.05
2023-03-20T11:46:27.720Z,3.02
2023-03-20T11:49:16.122Z,3.03
2023-03-20T11:51:43.064Z,3.02
2023-03-20T11:54:20.816Z,2.99
2023-03-20T11:56:53.954Z,2.94
2023-03-20T11:59:21.126Z,2.91
2023-03-20T12:01:52.746Z,2.89
2023-03-20T12:04:42.886Z,2.89
2023-03-20T12:07:33.206Z,2.86
2023-03-20T12:10:07.685Z,2.86
2023-03-20T12:12:34.564Z,2.87
2023-03-20T12:15:13.445Z,2.99
2023-03-20T12:18:01.524Z,3.03
2023-03-20T12:20:53.184Z,2.98
2023-03-20T12:23:34.256Z,2.94
2023-03-20T12:26:15.105Z,2.88
2023-03-20T12:29:17.586Z,2.83
2023-03-20T12:31:48.123Z,2.81
2023-03-20T12:34:42.411Z,2.80
2023-03-20T12:37:13.384Z,2.82
2023-03-20T12:39:46.533Z,2.84
2023-03-20T12:42:51.404Z,2.79
2023-03-20T12:45:22.068Z,2.78
2023-03-20T12:48:19.907Z,2.76
2023-03-20T12:51:13.556Z,2.78
2023-03-20T12:53:49.424Z,2.81
2023-03-20T12:56:46.817Z,2.81
2023-03-20T12:59:28.629Z,2.76
2023-03-20T13:02:24.470Z,2.80
2023-03-20T13:04:59.962Z,2.83
2023-03-20T13:07:42.863Z,2.82
2023-03-20T13:10:35.346Z,2.78
2023-03-20T13:13:38.290Z,2.75
2023-03-20T13:16:17.991Z,2.73
2023-03-20T13:19:26.345Z,2.68
2023-03-20T13:22:01.773Z,2.62
2023-03-20T13:24:43.162Z,2.58
2023-03-20T13:27:28.806Z,2.55
2023-03-20T13:29:55.685Z,2.52
2023-03-20T13:32:38.562Z,2.52
2023-03-20T13:35:20.739Z,2.52
2023-03-20T13:38:01.574Z,2.50
2023-03-20T13:40:38.374Z,2.48
2023-03-20T13:43:25.528Z,2.49
2023-03-20T13:46:02.559Z,2.53
2023-03-20T13:48:29.439Z,2.54
2023-03-20T13:51:18.454Z,2.54
2023-03-20T13:53:57.937Z,2.51
2023-03-20T13:56:37.708Z,2.48
2023-03-20T13:59:34.309Z,2.48
2023-03-20T14:02:10.688Z,2.53
2023-03-20T14:04:37.968Z,2.60
2023-03-20T14:07:31.904Z,2.58
2023-03-20T14:09:59.395Z,2.54
2023-03-20T14:12:26.717Z,2.52
2023-03-20T14:14:57.019Z,2.47
2023-03-20T14:17:28.576Z,2.43
2023-03-20T14:19:56.164Z,2.39
2023-03-20T14:22:27.735Z,2.35
2023-03-20T14:24:58.475Z,2.30
2023-03-20T14:27:45.075Z,2.24
2023-03-20T14:30:45.917Z,2.16
2023-03-20T14:33:16.301Z,2.10
2023-03-20T14:35:50.922Z,2.09
2023-03-20T14:38:20.992Z,2.10
2023-03-20T14:41:06.611Z,2.09
2023-03-20T14:43:52.283Z,2.09
2023-03-20T14:46:56.392Z,2.05
2023-03-20T14:49:27.754Z,2.05
2023-03-20T14:51:59.598Z,2.03
2023-03-20T14:54:28.927Z,2.01
2023-03-20T14:56:56.116Z,2.00
2023-03-20T14:59:23.851Z,1.98
2023-03-20T15:01:57.849Z,1.95
2023-03-20T15:04:41.249Z,1.90
2023-03-20T15:07:25.860Z,1.88
2023-03-20T15:09:55.682Z,1.86
2023-03-20T15:12:27.631Z,1.85
2023-03-20T15:14:59.244Z,1.83
2023-03-20T15:17:28.499Z,1.81
2023-03-20T15:20:22.234Z,1.79
2023-03-20T15:22:52.781Z,1.77
2023-03-20T15:25:20.885Z,1.75
2023-03-20T15:27:47.878Z,1.75
2023-03-20T15:30:16.558Z,1.78
2023-03-20T15:32:43.939Z,1.75
2023-03-20T15:35:19.264Z,1.74
2023-03-20T15:37:47.140Z,1.71
2023-03-20T15:40:34.420Z,1.73
2023-03-20T15:43:19.292Z,1.76
2023-03-20T15:45:46.326Z,1.74
2023-03-20T15:48:21.658Z,1.71
2023-03-20T15:50:53.915Z,1.69
2023-03-20T15:53:30.955Z,1.70
2023-03-20T15:56:17.630Z,1.73
2023-03-20T15:58:45.000Z,1.70
2023-03-20T16:01:21.017Z,1.68
2023-03-20T16:03:48.204Z,1.62
2023-03-20T16:06:19.176Z,1.60
2023-03-20T16:08:46.978Z,1.57
2023-03-20T16:11:15.954Z,1.55
2023-03-20T16:13:47.192Z,1.53
2023-03-20T16:16:22.036Z,1.51
2023-03-20T16:18:49.529Z,1.46
2023-03-20T16:21:23.468Z,1.45
2023-03-20T16:23:52.638Z,1.43
2023-03-20T16:26:21.378Z,1.42
2023-03-20T16:28:55.492Z,1.42
2023-03-20T16:31:26.105Z,1.39
2023-03-20T16:33:53.158Z,1.39
2023-03-20T16:36:22.746Z,1.40
2023-03-20T16:39:10.033Z,1.39
2023-03-20T16:41:40.601Z,1.39
2023-03-20T16:44:12.356Z,1.39
2023-03-20T16:46:54.611Z,1.40
2023-03-20T16:49:44.570Z,1.38
2023-03-20T16:52:13.105Z,1.33
2023-03-20T16:54:40.261Z,1.31
2023-03-20T16:57:14.733Z,1.32
2023-03-20T16:59:41.792Z,1.32
2023-03-20T17:02:38.335Z,1.36
2023-03-20T17:05:08.020Z,1.36
2023-03-20T17:07:35.090Z,1.37
2023-03-20T17:10:24.208Z,1.38
2023-03-20T17:12:55.056Z,1.36
2023-03-20T17:15:23.595Z,1.37
2023-03-20T17:17:50.906Z,1.40
2023-03-20T17:20:22.968Z,1.43
2023-03-20T17:22:49.997Z,1.45
2023-03-20T17:25:17.012Z,1.42
2023-03-20T17:27:44.072Z,1.37
2023-03-20T17:30:14.515Z,1.34
2023-03-20T17:32:41.436Z,1.33
2023-03-20T17:35:08.594Z,1.34
2023-03-20T17:37:35.525Z,1.37
2023-03-20T17:40:02.458Z,1.38
2023-03-20T17:42:31.581Z,1.38
2023-03-20T17:44:59.221Z,1.36
2023-03-20T17:47:26.977Z,1.40
2023-03-20T17:49:54.813Z,1.39
2023-03-20T17:52:26.515Z,1.39
2023-03-20T17:54:53.571Z,1.43
2023-03-20T17:57:27.412Z,1.45
2023-03-20T17:59:54.375Z,1.46
2023-03-20T18:02:21.354Z,1.49
2023-03-20T18:04:48.619Z,1.55
2023-03-20T18:07:15.896Z,1.57
2023-03-20T18:09:43.135Z,1.54
2023-03-20T18:12:15.598Z,1.50
2023-03-20T18:14:43.701Z,1.47
2023-03-20T18:17:13.929Z,1.45
2023-03-20T18:19:40.949Z,1.42
2023-03-20T18:22:08.042Z,1.40
2023-03-20T18:24:35.435Z,1.44
2023-03-20T18:27:02.621Z,1.45
2023-03-20T18:29:29.601Z,1.43
2023-03-20T18:31:56.729Z,1.43
2023-03-20T18:34:23.764Z,1.43
2023-03-20T18:36:51.239Z,1.40
2023-03-20T18:39:22.635Z,1.42
2023-03-20T18:41:49.750Z,1.38
2023-03-20T18:44:16.759Z,1.33
2023-03-20T18:46:43.753Z,1.28
2023-03-20T18:49:14.643Z,1.28
2023-03-20T18:51:41.623Z,1.29
2023-03-20T18:54:08.879Z,1.26
2023-03-20T18:56:37.754Z,1.24
2023-03-20T18:59:09.532Z,1.24
2023-03-20T19:01:36.560Z,1.21
2023-03-20T19:04:03.782Z,1.20
2023-03-20T19:06:32.318Z,1.16
2023-03-20T19:08:59.629Z,1.14
2023-03-20T19:11:27.057Z,1.13
2023-03-20T19:13:54.344Z,1.11
2023-03-20T19:16:25.209Z,1.10
2023-03-20T19:18:53.584Z,1.07
2023-03-20T19:21:26.010Z,1.08
2023-03-20T19:24:04.782Z,1.11
2023-03-20T19:26:32.494Z,1.15
2023-03-20T19:29:01.020Z,1.23
2023-03-20T19:31:28.470Z,1.32
2023-03-20T19:33:56.851Z,1.42
2023-03-20T19:36:27.783Z,1.51
2023-03-20T19:38:55.829Z,1.46
2023-03-20T19:41:22.813Z,1.40
2023-03-20T19:43:53.411Z,1.39
2023-03-20T19:46:38.733Z,1.39
2023-03-20T19:49:07.105Z,1.36
2023-03-20T19:51:34.014Z,1.39
2023-03-20T19:54:00.959Z,1.39
2023-03-20T19:56:27.869Z,1.37
2023-03-20T19:58:54.998Z,1.32
2023-03-20T20:01:24.186Z,1.29
2023-03-20T20:03:53.708Z,1.26
2023-03-20T20:06:22.358Z,1.23
2023-03-20T20:08:51.356Z,1.25
2023-03-20T20:11:19.049Z,1.25
2023-03-20T20:14:07.114Z,1.23
2023-03-20T20:16:35.702Z,1.29
2023-03-20T20:19:02.938Z,1.34
2023-03-20T20:24:17.005Z,1.46
2023-03-20T20:26:54.189Z,1.45
2023-03-20T20:29:24.843Z,1.41
2023-03-20T20:31:51.862Z,1.47
2023-03-20T20:39:53.804Z,1.53
2023-03-20T20:42:20.788Z,1.60
2023-03-20T20:44:47.863Z,1.68
2023-03-20T20:47:15.361Z,1.69
2023-03-20T20:49:42.478Z,1.63
2023-03-20T20:52:09.326Z,1.63
2023-03-20T20:54:36.344Z,1.68
2023-03-20T20:57:03.481Z,1.67
2023-03-20T20:59:30.587Z,1.69
2023-03-20T21:01:57.648Z,1.65
2023-03-20T21:04:24.754Z,1.61
2023-03-20T21:07:09.400Z,1.56
2023-03-20T21:09:37.566Z,1.46
2023-03-20T21:12:04.781Z,1.44
2023-03-20T21:14:31.776Z,1.45
2023-03-20T21:17:01.614Z,1.47
2023-03-20T21:19:36.030Z,1.49
2023-03-20T21:22:03.668Z,1.55
2023-03-20T21:24:33.865Z,1.52
2023-03-20T21:27:06.898Z,1.44
2023-03-20T21:29:34.170Z,1.40
2023-03-20T21:32:01.391Z,1.40
2023-03-20T21:34:29.253Z,1.37
2023-03-20T21:36:57.887Z,1.36
2023-03-20T21:39:27.642Z,1.38
2023-03-20T21:41:54.814Z,1.42
2023-03-20T21:45:01.089Z,1.38
2023-03-20T21:48:04.008Z,1.32
2023-03-20T21:53:20.184Z,1.42
2023-03-20T21:56:37.289Z,1.46
2023-03-20T22:01:53.916Z,1.42
2023-03-20T22:05:00.864Z,1.42
2023-03-20T22:18:28.804Z,1.38
2023-03-20T22:21:22.475Z,1.53
2023-03-20T22:27:13.059Z,1.68
2023-03-20T22:32:40.178Z,1.71
2023-03-20T22:38:21.873Z,1.55
2023-03-20T22:40:57.566Z,1.64
2023-03-20T22:43:57.182Z,1.67
2023-03-20T22:45:57.516Z,1.67
2023-03-20T22:48:30.450Z,1.56
2023-03-20T22:50:57.394Z,1.45
2023-03-20T22:53:24.317Z,1.34
2023-03-20T22:55:52.406Z,1.41
2023-03-20T22:58:19.391Z,1.42
2023-03-20T23:00:46.569Z,1.34
2023-03-20T23:03:22.748Z,1.34
2023-03-20T23:05:56.968Z,1.27
2023-03-20T23:08:24.791Z,1.27
2023-03-20T23:10:52.020Z,1.25
2023-03-20T23:13:20.385Z,1.35
2023-03-20T23:15:47.543Z,1.48
2023-03-20T23:18:14.947Z,1.53
2023-03-20T23:20:41.871Z,1.46
2023-03-20T23:23:10.262Z,1.38
2023-03-20T23:25:39.753Z,1.39
2023-03-20T23:28:08.578Z,1.36
2023-03-20T23:30:46.558Z,1.42
2023-03-20T23:33:16.679Z,1.45
2023-03-20T23:35:43.778Z,1.42
2023-03-20T23:38:10.852Z,1.35
2023-03-20T23:40:38.020Z,1.30
2023-03-20T23:43:05.048Z,1.22
2023-03-20T23:45:32.258Z,1.15
2023-03-20T23:47:59.178Z,1.10
2023-03-20T23:53:20.221Z,0.96
2023-03-20T23:55:52.098Z,0.92
2023-03-20T23:58:19.171Z,0.95
